sensor_id;sensor_type;location;lat;lon;timestamp;pressure;altitude;pressure_sealevel;temperature;humidity
25664;BME280;13522;50.018;20.014;2023-03-19T00:00:31;99026.27;;;4.88;79.67
25664;BME280;13522;50.018;20.014;2023-03-19T00:03:45;99028.16;;;4.86;80.01
25664;BME280;13522;50.018;20.014;2023-03-19T00:06:58;99028.03;;;4.75;81.74
25664;BME280;13522;50.018;20.014;2023-03-19T00:10:12;99031.13;;;4.68;82.17
25664;BME280;13522;50.018;20.014;2023-03-19T00:13:23;99027.80;;;4.52;82.88
25664;BME280;13522;50.018;20.014;2023-03-19T00:16:36;99031.18;;;4.54;83.45
25664;BME280;13522;50.018;20.014;2023-03-19T00:19:49;99035.52;;;4.55;83.13
25664;BME280;13522;50.018;20.014;2023-03-19T00:23:01;99028.13;;;4.47;83.56
25664;BME280;13522;50.018;20.014;2023-03-19T00:26:09;99028.23;;;4.46;81.94
25664;BME280;13522;50.018;20.014;2023-03-19T00:29:21;99031.08;;;4.28;82.27
25664;BME280;13522;50.018;20.014;2023-03-19T00:32:33;99034.69;;;4.13;83.36
25664;BME280;13522;50.018;20.014;2023-03-19T00:35:46;99032.06;;;4.13;82.50
25664;BME280;13522;50.018;20.014;2023-03-19T00:38:58;99035.17;;;4.06;83.73
25664;BME280;13522;50.018;20.014;2023-03-19T00:42:13;99031.87;;;4.02;84.33
25664;BME280;13522;50.018;20.014;2023-03-19T00:45:25;99040.98;;;3.97;84.63
25664;BME280;13522;50.018;20.014;2023-03-19T00:48:38;99036.86;;;3.93;86.19
25664;BME280;13522;50.018;20.014;2023-03-19T00:51:50;99023.06;;;4.03;85.82
25664;BME280;13522;50.018;20.014;2023-03-19T00:55:02;99029.06;;;4.05;85.02
25664;BME280;13522;50.018;20.014;2023-03-19T00:58:15;99022.31;;;4.01;85.07
25664;BME280;13522;50.018;20.014;2023-03-19T01:01:28;99025.80;;;3.88;85.35
25664;BME280;13522;50.018;20.014;2023-03-19T01:04:41;99021.78;;;3.82;85.39
25664;BME280;13522;50.018;20.014;2023-03-19T01:07:53;99016.43;;;3.84;85.75
25664;BME280;13522;50.018;20.014;2023-03-19T01:11:11;99012.09;;;3.83;86.56
25664;BME280;13522;50.018;20.014;2023-03-19T01:14:24;99018.58;;;3.77;86.79
25664;BME280;13522;50.018;20.014;2023-03-19T01:17:36;99020.66;;;3.72;87.38
25664;BME280;13522;50.018;20.014;2023-03-19T01:20:50;99015.20;;;3.75;87.62
25664;BME280;13522;50.018;20.014;2023-03-19T01:24:02;99016.16;;;3.74;87.70
25664;BME280;13522;50.018;20.014;2023-03-19T01:27:16;99020.94;;;3.68;87.42
25664;BME280;13522;50.018;20.014;2023-03-19T01:30:29;99028.06;;;3.66;88.47
25664;BME280;13522;50.018;20.014;2023-03-19T01:33:41;99018.78;;;3.60;89.28
25664;BME280;13522;50.018;20.014;2023-03-19T01:37:14;99022.80;;;3.51;88.50
25664;BME280;13522;50.018;20.014;2023-03-19T01:40:26;99027.12;;;3.38;88.90
25664;BME280;13522;50.018;20.014;2023-03-19T01:43:39;99026.37;;;3.36;89.49
25664;BME280;13522;50.018;20.014;2023-03-19T01:46:58;99022.32;;;3.45;90.58
25664;BME280;13522;50.018;20.014;2023-03-19T01:50:23;99033.02;;;3.42;91.50
25664;BME280;13522;50.018;20.014;2023-03-19T01:53:42;99028.89;;;3.38;91.62
25664;BME280;13522;50.018;20.014;2023-03-19T01:57:13;99023.25;;;3.30;91.54
25664;BME280;13522;50.018;20.014;2023-03-19T02:00:45;99024.01;;;3.32;91.89
25664;BME280;13522;50.018;20.014;2023-03-19T02:03:59;99028.67;;;3.27;90.61
25664;BME280;13522;50.018;20.014;2023-03-19T02:07:13;99032.80;;;3.17;90.10
25664;BME280;13522;50.018;20.014;2023-03-19T02:10:27;99032.87;;;3.15;89.86
25664;BME280;13522;50.018;20.014;2023-03-19T02:13:40;99029.78;;;3.09;92.40
25664;BME280;13522;50.018;20.014;2023-03-19T02:16:53;99032.02;;;3.01;93.27
25664;BME280;13522;50.018;20.014;2023-03-19T02:20:10;99026.63;;;2.88;94.38
25664;BME280;13522;50.018;20.014;2023-03-19T02:23:32;99029.34;;;2.87;95.88
25664;BME280;13522;50.018;20.014;2023-03-19T02:26:49;99021.17;;;2.77;95.08
25664;BME280;13522;50.018;20.014;2023-03-19T02:30:16;99024.09;;;2.87;94.27
25664;BME280;13522;50.018;20.014;2023-03-19T02:33:29;99033.08;;;2.83;92.89
25664;BME280;13522;50.018;20.014;2023-03-19T02:36:44;99039.23;;;2.82;91.93
25664;BME280;13522;50.018;20.014;2023-03-19T02:40:02;99034.79;;;2.68;92.51
25664;BME280;13522;50.018;20.014;2023-03-19T02:43:18;99043.19;;;2.59;93.08
25664;BME280;13522;50.018;20.014;2023-03-19T02:46:32;99054.11;;;2.51;93.09
25664;BME280;13522;50.018;20.014;2023-03-19T02:49:44;99052.59;;;2.47;93.32
25664;BME280;13522;50.018;20.014;2023-03-19T02:52:52;99059.52;;;2.48;93.86
25664;BME280;13522;50.018;20.014;2023-03-19T02:56:05;99053.27;;;2.51;94.42
25664;BME280;13522;50.018;20.014;2023-03-19T02:59:18;99053.76;;;2.42;96.36
25664;BME280;13522;50.018;20.014;2023-03-19T03:02:30;99051.90;;;2.44;96.97
25664;BME280;13522;50.018;20.014;2023-03-19T03:05:43;99042.17;;;2.46;95.94
25664;BME280;13522;50.018;20.014;2023-03-19T03:08:55;99045.30;;;2.52;96.13
25664;BME280;13522;50.018;20.014;2023-03-19T03:12:09;99052.25;;;2.53;94.82
25664;BME280;13522;50.018;20.014;2023-03-19T03:15:22;99052.75;;;2.44;94.17
25664;BME280;13522;50.018;20.014;2023-03-19T03:18:34;99054.19;;;2.34;95.13
25664;BME280;13522;50.018;20.014;2023-03-19T03:21:47;99051.91;;;2.28;95.57
25664;BME280;13522;50.018;20.014;2023-03-19T03:24:59;99057.48;;;2.22;95.57
25664;BME280;13522;50.018;20.014;2023-03-19T03:28:11;99066.44;;;2.18;95.54
25664;BME280;13522;50.018;20.014;2023-03-19T03:31:24;99060.95;;;2.07;96.94
25664;BME280;13522;50.018;20.014;2023-03-19T03:34:36;99060.77;;;2.10;97.60
25664;BME280;13522;50.018;20.014;2023-03-19T03:37:48;99059.25;;;2.06;97.72
25664;BME280;13522;50.018;20.014;2023-03-19T03:41:01;99058.58;;;2.03;98.28
25664;BME280;13522;50.018;20.014;2023-03-19T03:44:13;99058.32;;;1.92;99.84
25664;BME280;13522;50.018;20.014;2023-03-19T03:47:25;99067.41;;;1.85;100.00
25664;BME280;13522;50.018;20.014;2023-03-19T03:50:37;99066.41;;;1.87;100.00
25664;BME280;13522;50.018;20.014;2023-03-19T03:53:51;99073.18;;;1.91;99.66
25664;BME280;13522;50.018;20.014;2023-03-19T03:57:04;99074.45;;;1.84;99.14
25664;BME280;13522;50.018;20.014;2023-03-19T04:00:18;99071.30;;;1.78;99.60
25664;BME280;13522;50.018;20.014;2023-03-19T04:03:31;99077.21;;;1.81;99.93
25664;BME280;13522;50.018;20.014;2023-03-19T04:06:43;99078.59;;;1.88;100.00
25664;BME280;13522;50.018;20.014;2023-03-19T04:10:15;99088.54;;;1.82;100.00
25664;BME280;13522;50.018;20.014;2023-03-19T04:13:27;99076.30;;;1.82;100.00
25664;BME280;13522;50.018;20.014;2023-03-19T04:16:42;99083.30;;;1.82;100.00
25664;BME280;13522;50.018;20.014;2023-03-19T04:19:54;99084.86;;;1.68;100.00
25664;BME280;13522;50.018;20.014;2023-03-19T04:23:07;99076.64;;;1.59;100.00
25664;BME280;13522;50.018;20.014;2023-03-19T04:26:19;99085.66;;;1.53;100.00
25664;BME280;13522;50.018;20.014;2023-03-19T04:29:31;99084.67;;;1.56;100.00
25664;BME280;13522;50.018;20.014;2023-03-19T04:32:43;99078.34;;;1.60;100.00
25664;BME280;13522;50.018;20.014;2023-03-19T04:35:56;99082.91;;;1.56;100.00
25664;BME280;13522;50.018;20.014;2023-03-19T04:39:09;99073.44;;;1.54;100.00
25664;BME280;13522;50.018;20.014;2023-03-19T04:42:21;99069.55;;;1.61;100.00
25664;BME280;13522;50.018;20.014;2023-03-19T04:45:35;99070.00;;;1.69;100.00
25664;BME280;13522;50.018;20.014;2023-03-19T04:48:47;99076.33;;;1.65;100.00
25664;BME280;13522;50.018;20.014;2023-03-19T04:52:01;99074.02;;;1.59;100.00
25664;BME280;13522;50.018;20.014;2023-03-19T04:55:14;99070.32;;;1.63;100.00
25664;BME280;13522;50.018;20.014;2023-03-19T04:58:28;99080.65;;;1.66;100.00
25664;BME280;13522;50.018;20.014;2023-03-19T05:01:40;99080.56;;;1.67;100.00
25664;BME280;13522;50.018;20.014;2023-03-19T05:04:54;99072.20;;;1.76;100.00
25664;BME280;13522;50.018;20.014;2023-03-19T05:08:08;99070.97;;;1.84;100.00
25664;BME280;13522;50.018;20.014;2023-03-19T05:11:20;99072.09;;;1.95;100.00
25664;BME280;13522;50.018;20.014;2023-03-19T05:14:40;99063.23;;;1.98;100.00
25664;BME280;13522;50.018;20.014;2023-03-19T05:17:55;99071.91;;;1.98;100.00
25664;BME280;13522;50.018;20.014;2023-03-19T05:21:11;99077.50;;;1.92;100.00
25664;BME280;13522;50.018;20.014;2023-03-19T05:24:24;99072.33;;;1.91;100.00
25664;BME280;13522;50.018;20.014;2023-03-19T05:27:37;99076.36;;;1.81;100.00
25664;BME280;13522;50.018;20.014;2023-03-19T05:30:51;99073.50;;;1.85;100.00
25664;BME280;13522;50.018;20.014;2023-03-19T05:34:05;99074.18;;;1.89;100.00
25664;BME280;13522;50.018;20.014;2023-03-19T05:37:18;99072.83;;;1.82;100.00
25664;BME280;13522;50.018;20.014;2023-03-19T05:40:32;99071.83;;;1.84;100.00
25664;BME280;13522;50.018;20.014;2023-03-19T05:43:58;99076.05;;;2.02;100.00
25664;BME280;13522;50.018;20.014;2023-03-19T05:47:12;99076.09;;;2.18;100.00
25664;BME280;13522;50.018;20.014;2023-03-19T05:50:27;99074.48;;;2.46;99.34
25664;BME280;13522;50.018;20.014;2023-03-19T05:53:41;99065.27;;;3.00;97.30
25664;BME280;13522;50.018;20.014;2023-03-19T05:57:14;99055.83;;;3.70;94.47
25664;BME280;13522;50.018;20.014;2023-03-19T06:00:38;99055.73;;;3.71;92.88
25664;BME280;13522;50.018;20.014;2023-03-19T06:03:50;99044.73;;;3.65;95.12
25664;BME280;13522;50.018;20.014;2023-03-19T06:07:02;99061.36;;;3.93;95.50
25664;BME280;13522;50.018;20.014;2023-03-19T06:10:15;99055.56;;;4.43;92.17
25664;BME280;13522;50.018;20.014;2023-03-19T06:13:29;99053.10;;;4.93;88.73
25664;BME280;13522;50.018;20.014;2023-03-19T06:16:44;99041.41;;;5.49;87.25
25664;BME280;13522;50.018;20.014;2023-03-19T06:19:57;99046.30;;;6.42;82.97
25664;BME280;13522;50.018;20.014;2023-03-19T06:23:09;99043.53;;;7.25;78.27
25664;BME280;13522;50.018;20.014;2023-03-19T06:26:22;99047.03;;;7.94;74.73
25664;BME280;13522;50.018;20.014;2023-03-19T06:29:37;99049.80;;;8.36;72.96
25664;BME280;13522;50.018;20.014;2023-03-19T06:32:54;99052.34;;;8.27;72.69
25664;BME280;13522;50.018;20.014;2023-03-19T06:36:09;99056.66;;;8.39;71.09
25664;BME280;13522;50.018;20.014;2023-03-19T06:39:22;99047.20;;;8.68;69.70
25664;BME280;13522;50.018;20.014;2023-03-19T06:42:34;99055.35;;;8.87;68.83
25664;BME280;13522;50.018;20.014;2023-03-19T06:45:48;99056.38;;;8.96;69.12
25664;BME280;13522;50.018;20.014;2023-03-19T06:49:00;99055.27;;;9.92;65.65
25664;BME280;13522;50.018;20.014;2023-03-19T06:52:13;99049.00;;;10.72;62.14
25664;BME280;13522;50.018;20.014;2023-03-19T06:55:25;99051.00;;;11.18;60.27
25664;BME280;13522;50.018;20.014;2023-03-19T06:58:37;99037.96;;;11.72;58.92
25664;BME280;13522;50.018;20.014;2023-03-19T07:01:49;99041.44;;;12.19;56.58
25664;BME280;13522;50.018;20.014;2023-03-19T07:05:01;99055.84;;;11.61;59.82
25664;BME280;13522;50.018;20.014;2023-03-19T07:08:14;99046.61;;;11.84;56.91
25664;BME280;13522;50.018;20.014;2023-03-19T07:11:26;99047.92;;;11.32;58.33
25664;BME280;13522;50.018;20.014;2023-03-19T07:14:40;99039.79;;;11.33;59.10
25664;BME280;13522;50.018;20.014;2023-03-19T07:17:52;99044.56;;;11.30;59.98
25664;BME280;13522;50.018;20.014;2023-03-19T07:21:04;99037.42;;;11.40;61.74
25664;BME280;13522;50.018;20.014;2023-03-19T07:24:17;99035.72;;;11.68;59.40
25664;BME280;13522;50.018;20.014;2023-03-19T07:27:29;99032.14;;;11.96;58.92
25664;BME280;13522;50.018;20.014;2023-03-19T07:30:41;99037.27;;;12.07;58.11
25664;BME280;13522;50.018;20.014;2023-03-19T07:33:53;99021.36;;;12.25;57.50
25664;BME280;13522;50.018;20.014;2023-03-19T07:37:05;99031.53;;;12.39;57.18
25664;BME280;13522;50.018;20.014;2023-03-19T07:40:18;99026.30;;;12.47;56.64
25664;BME280;13522;50.018;20.014;2023-03-19T07:43:31;99011.97;;;12.92;55.03
25664;BME280;13522;50.018;20.014;2023-03-19T07:46:43;99011.28;;;13.69;53.42
25664;BME280;13522;50.018;20.014;2023-03-19T07:49:55;99019.40;;;13.85;53.34
25664;BME280;13522;50.018;20.014;2023-03-19T07:53:08;99018.03;;;14.40;52.24
25664;BME280;13522;50.018;20.014;2023-03-19T07:56:20;99006.20;;;15.41;48.82
25664;BME280;13522;50.018;20.014;2023-03-19T07:59:33;98998.51;;;16.25;45.94
25664;BME280;13522;50.018;20.014;2023-03-19T08:02:45;99006.52;;;15.22;49.29
25664;BME280;13522;50.018;20.014;2023-03-19T08:05:57;99006.88;;;15.35;50.28
25664;BME280;13522;50.018;20.014;2023-03-19T08:09:10;99001.84;;;15.24;50.00
25664;BME280;13522;50.018;20.014;2023-03-19T08:12:22;98998.98;;;15.33;49.50
25664;BME280;13522;50.018;20.014;2023-03-19T08:15:34;99005.48;;;14.83;49.15
25664;BME280;13522;50.018;20.014;2023-03-19T08:18:46;98992.81;;;15.09;48.80
25664;BME280;13522;50.018;20.014;2023-03-19T08:21:58;98988.31;;;15.49;48.68
25664;BME280;13522;50.018;20.014;2023-03-19T08:25:11;98976.73;;;15.65;49.66
25664;BME280;13522;50.018;20.014;2023-03-19T08:28:24;98971.70;;;15.78;48.07
25664;BME280;13522;50.018;20.014;2023-03-19T08:31:36;98967.61;;;16.06;48.14
25664;BME280;13522;50.018;20.014;2023-03-19T08:34:48;98973.63;;;16.78;44.85
25664;BME280;13522;50.018;20.014;2023-03-19T08:38:00;98965.57;;;16.47;45.51
25664;BME280;13522;50.018;20.014;2023-03-19T08:41:13;98962.38;;;17.05;44.33
25664;BME280;13522;50.018;20.014;2023-03-19T08:44:25;98961.29;;;17.14;44.16
25664;BME280;13522;50.018;20.014;2023-03-19T08:47:38;98962.39;;;17.79;42.94
25664;BME280;13522;50.018;20.014;2023-03-19T08:50:54;98957.91;;;17.57;41.35
25664;BME280;13522;50.018;20.014;2023-03-19T08:54:07;98956.19;;;17.42;41.18
25664;BME280;13522;50.018;20.014;2023-03-19T08:57:20;98962.02;;;17.45;41.99
25664;BME280;13522;50.018;20.014;2023-03-19T09:00:32;98954.06;;;17.74;41.23
25664;BME280;13522;50.018;20.014;2023-03-19T09:03:44;98956.98;;;18.52;39.52
25664;BME280;13522;50.018;20.014;2023-03-19T09:06:56;98957.06;;;18.59;41.08
25664;BME280;13522;50.018;20.014;2023-03-19T09:10:10;98960.15;;;18.27;38.29
25664;BME280;13522;50.018;20.014;2023-03-19T09:13:22;98953.83;;;18.84;38.75
25664;BME280;13522;50.018;20.014;2023-03-19T09:16:36;98964.28;;;18.94;38.78
25664;BME280;13522;50.018;20.014;2023-03-19T09:19:50;98954.67;;;19.48;37.26
25664;BME280;13522;50.018;20.014;2023-03-19T09:23:02;98956.99;;;19.09;36.74
25664;BME280;13522;50.018;20.014;2023-03-19T09:26:15;98953.02;;;19.05;37.28
25664;BME280;13522;50.018;20.014;2023-03-19T09:29:27;98945.89;;;19.19;36.72
25664;BME280;13522;50.018;20.014;2023-03-19T09:32:40;98941.98;;;19.21;37.65
25664;BME280;13522;50.018;20.014;2023-03-19T09:35:53;98933.16;;;19.82;37.31
25664;BME280;13522;50.018;20.014;2023-03-19T09:39:07;98937.02;;;20.42;35.57
25664;BME280;13522;50.018;20.014;2023-03-19T09:42:30;98924.71;;;20.33;35.05
25664;BME280;13522;50.018;20.014;2023-03-19T09:45:49;98919.95;;;21.08;33.32
25664;BME280;13522;50.018;20.014;2023-03-19T09:49:05;98907.45;;;20.88;34.42
25664;BME280;13522;50.018;20.014;2023-03-19T09:52:30;98909.30;;;20.94;33.66
25664;BME280;13522;50.018;20.014;2023-03-19T09:55:50;98913.33;;;21.17;33.68
25664;BME280;13522;50.018;20.014;2023-03-19T09:59:03;98904.11;;;20.92;34.00
25664;BME280;13522;50.018;20.014;2023-03-19T10:02:28;98909.08;;;20.82;34.08
25664;BME280;13522;50.018;20.014;2023-03-19T10:05:55;98913.98;;;20.46;33.58
25664;BME280;13522;50.018;20.014;2023-03-19T10:09:29;98911.52;;;20.64;32.74
25664;BME280;13522;50.018;20.014;2023-03-19T10:12:53;98911.70;;;20.09;33.58
25664;BME280;13522;50.018;20.014;2023-03-19T10:16:12;98906.27;;;19.34;34.36
25664;BME280;13522;50.018;20.014;2023-03-19T10:19:31;98907.75;;;19.15;35.59
25664;BME280;13522;50.018;20.014;2023-03-19T10:22:50;98915.13;;;19.07;34.71
25664;BME280;13522;50.018;20.014;2023-03-19T10:26:07;98902.89;;;18.83;34.66
25664;BME280;13522;50.018;20.014;2023-03-19T10:29:19;98900.70;;;18.72;35.23
25664;BME280;13522;50.018;20.014;2023-03-19T10:32:38;98899.05;;;18.71;35.78
25664;BME280;13522;50.018;20.014;2023-03-19T10:35:56;98891.59;;;19.15;33.56
25664;BME280;13522;50.018;20.014;2023-03-19T10:39:10;98882.19;;;19.32;34.00
25664;BME280;13522;50.018;20.014;2023-03-19T10:42:40;98879.27;;;19.27;32.72
25664;BME280;13522;50.018;20.014;2023-03-19T10:45:57;98878.59;;;19.46;30.93
25664;BME280;13522;50.018;20.014;2023-03-19T10:49:13;98869.16;;;19.63;29.86
25664;BME280;13522;50.018;20.014;2023-03-19T10:52:29;98869.47;;;19.47;29.97
25664;BME280;13522;50.018;20.014;2023-03-19T10:55:47;98859.89;;;19.38;28.90
25664;BME280;13522;50.018;20.014;2023-03-19T10:59:04;98858.90;;;19.46;28.40
25664;BME280;13522;50.018;20.014;2023-03-19T11:02:23;98861.80;;;19.44;29.25
25664;BME280;13522;50.018;20.014;2023-03-19T11:05:37;98854.34;;;19.19;31.11
25664;BME280;13522;50.018;20.014;2023-03-19T11:08:57;98853.61;;;19.59;29.66
25664;BME280;13522;50.018;20.014;2023-03-19T11:12:19;98849.03;;;19.59;30.68
25664;BME280;13522;50.018;20.014;2023-03-19T11:15:36;98840.45;;;19.83;32.53
25664;BME280;13522;50.018;20.014;2023-03-19T11:18:50;98842.31;;;19.83;30.71
25664;BME280;13522;50.018;20.014;2023-03-19T11:22:08;98842.20;;;19.29;32.96
25664;BME280;13522;50.018;20.014;2023-03-19T11:25:29;98851.28;;;19.00;30.99
25664;BME280;13522;50.018;20.014;2023-03-19T11:28:43;98841.00;;;18.83;32.85
25664;BME280;13522;50.018;20.014;2023-03-19T11:32:00;98848.67;;;18.86;30.61
25664;BME280;13522;50.018;20.014;2023-03-19T11:35:22;98832.30;;;19.09;29.59
25664;BME280;13522;50.018;20.014;2023-03-19T11:38:41;98834.20;;;18.87;30.62
25664;BME280;13522;50.018;20.014;2023-03-19T11:42:23;98826.08;;;19.08;28.81
25664;BME280;13522;50.018;20.014;2023-03-19T11:46:00;98819.68;;;19.09;29.03
25664;BME280;13522;50.018;20.014;2023-03-19T11:49:43;98824.98;;;18.75;29.84
25664;BME280;13522;50.018;20.014;2023-03-19T11:53:06;98821.15;;;18.63;28.80
25664;BME280;13522;50.018;20.014;2023-03-19T11:56:27;98799.16;;;18.80;30.10
25664;BME280;13522;50.018;20.014;2023-03-19T11:59:58;98786.00;;;19.54;31.05
25664;BME280;13522;50.018;20.014;2023-03-19T12:07:18;98794.67;;;19.49;31.23
25664;BME280;13522;50.018;20.014;2023-03-19T12:14:38;98799.56;;;19.05;29.98
25664;BME280;13522;50.018;20.014;2023-03-19T12:18:00;98786.63;;;19.56;28.69
25664;BME280;13522;50.018;20.014;2023-03-19T12:21:19;98788.40;;;19.76;28.56
25664;BME280;13522;50.018;20.014;2023-03-19T12:24:43;98780.78;;;19.46;29.34
25664;BME280;13522;50.018;20.014;2023-03-19T12:28:09;98788.28;;;19.23;28.84
25664;BME280;13522;50.018;20.014;2023-03-19T12:31:56;98775.18;;;19.13;30.04
25664;BME280;13522;50.018;20.014;2023-03-19T12:35:15;98768.04;;;18.99;31.42
25664;BME280;13522;50.018;20.014;2023-03-19T12:38:33;98763.84;;;19.24;30.50
25664;BME280;13522;50.018;20.014;2023-03-19T12:41:48;98746.26;;;19.28;30.44
25664;BME280;13522;50.018;20.014;2023-03-19T12:45:04;98741.28;;;18.91;33.12
25664;BME280;13522;50.018;20.014;2023-03-19T12:48:25;98755.37;;;18.65;31.07
25664;BME280;13522;50.018;20.014;2023-03-19T12:51:38;98740.44;;;18.90;31.50
25664;BME280;13522;50.018;20.014;2023-03-19T12:54:55;98748.59;;;18.76;33.95
25664;BME280;13522;50.018;20.014;2023-03-19T12:58:19;98747.50;;;18.64;33.42
25664;BME280;13522;50.018;20.014;2023-03-19T13:01:38;98742.70;;;18.87;33.79
25664;BME280;13522;50.018;20.014;2023-03-19T13:04:56;98738.94;;;18.81;34.46
25664;BME280;13522;50.018;20.014;2023-03-19T13:08:15;98730.31;;;18.65;31.80
25664;BME280;13522;50.018;20.014;2023-03-19T13:11:37;98732.13;;;18.58;30.34
25664;BME280;13522;50.018;20.014;2023-03-19T13:14:57;98735.83;;;18.57;30.61
25664;BME280;13522;50.018;20.014;2023-03-19T13:18:19;98728.01;;;18.41;30.51
25664;BME280;13522;50.018;20.014;2023-03-19T13:21:34;98729.83;;;18.34;31.96
25664;BME280;13522;50.018;20.014;2023-03-19T13:24:49;98727.77;;;18.36;31.74
25664;BME280;13522;50.018;20.014;2023-03-19T13:28:04;98722.63;;;18.41;34.09
25664;BME280;13522;50.018;20.014;2023-03-19T13:31:22;98713.69;;;18.34;32.37
25664;BME280;13522;50.018;20.014;2023-03-19T13:34:36;98723.40;;;18.35;35.08
25664;BME280;13522;50.018;20.014;2023-03-19T13:37:54;98720.84;;;18.27;34.88
25664;BME280;13522;50.018;20.014;2023-03-19T13:44:52;98712.23;;;18.10;36.22
25664;BME280;13522;50.018;20.014;2023-03-19T13:48:36;98713.55;;;18.20;32.85
25664;BME280;13522;50.018;20.014;2023-03-19T13:51:49;98704.08;;;18.25;34.27
25664;BME280;13522;50.018;20.014;2023-03-19T13:55:48;98707.94;;;18.15;35.86
25664;BME280;13522;50.018;20.014;2023-03-19T13:59:21;98705.69;;;18.19;36.51
25664;BME280;13522;50.018;20.014;2023-03-19T14:02:55;98699.97;;;18.29;34.69
25664;BME280;13522;50.018;20.014;2023-03-19T14:06:37;98705.22;;;18.37;35.84
25664;BME280;13522;50.018;20.014;2023-03-19T14:10:03;98708.83;;;18.01;34.63
25664;BME280;13522;50.018;20.014;2023-03-19T14:13:20;98708.95;;;17.72;34.75
25664;BME280;13522;50.018;20.014;2023-03-19T14:16:40;98706.38;;;17.64;35.71
25664;BME280;13522;50.018;20.014;2023-03-19T14:19:54;98701.75;;;17.58;37.83
25664;BME280;13522;50.018;20.014;2023-03-19T14:23:21;98701.25;;;17.69;35.87
25664;BME280;13522;50.018;20.014;2023-03-19T14:26:39;98690.30;;;17.35;33.90
25664;BME280;13522;50.018;20.014;2023-03-19T14:29:55;98704.08;;;17.32;35.97
25664;BME280;13522;50.018;20.014;2023-03-19T14:33:13;98698.91;;;17.16;37.92
25664;BME280;13522;50.018;20.014;2023-03-19T14:36:29;98704.83;;;17.11;36.73
25664;BME280;13522;50.018;20.014;2023-03-19T14:39:44;98701.79;;;17.00;39.29
25664;BME280;13522;50.018;20.014;2023-03-19T14:43:07;98701.24;;;16.75;38.03
25664;BME280;13522;50.018;20.014;2023-03-19T14:46:26;98715.01;;;16.72;41.34
25664;BME280;13522;50.018;20.014;2023-03-19T14:50:04;98712.78;;;16.61;41.53
25664;BME280;13522;50.018;20.014;2023-03-19T14:53:29;98713.81;;;16.37;38.24
25664;BME280;13522;50.018;20.014;2023-03-19T14:56:47;98710.24;;;16.22;36.47
25664;BME280;13522;50.018;20.014;2023-03-19T15:00:00;98703.17;;;16.07;37.96
25664;BME280;13522;50.018;20.014;2023-03-19T15:03:28;98710.87;;;16.10;39.75
25664;BME280;13522;50.018;20.014;2023-03-19T15:06:45;98716.04;;;16.11;41.37
25664;BME280;13522;50.018;20.014;2023-03-19T15:10:00;98711.39;;;16.05;40.63
25664;BME280;13522;50.018;20.014;2023-03-19T15:13:22;98716.75;;;16.05;39.25
25664;BME280;13522;50.018;20.014;2023-03-19T15:16:43;98710.98;;;15.94;41.46
25664;BME280;13522;50.018;20.014;2023-03-19T15:20:02;98718.59;;;16.05;39.08
25664;BME280;13522;50.018;20.014;2023-03-19T15:23:23;98713.23;;;16.05;39.48
25664;BME280;13522;50.018;20.014;2023-03-19T15:26:38;98709.80;;;15.96;39.83
25664;BME280;13522;50.018;20.014;2023-03-19T15:29:51;98701.77;;;15.96;39.80
25664;BME280;13522;50.018;20.014;2023-03-19T15:33:17;98700.92;;;15.96;39.75
25664;BME280;13522;50.018;20.014;2023-03-19T15:36:35;98696.99;;;15.84;43.31
25664;BME280;13522;50.018;20.014;2023-03-19T15:39:50;98703.58;;;15.73;42.22
25664;BME280;13522;50.018;20.014;2023-03-19T15:43:04;98708.65;;;15.68;43.40
25664;BME280;13522;50.018;20.014;2023-03-19T15:46:19;98696.16;;;15.60;41.15
25664;BME280;13522;50.018;20.014;2023-03-19T15:49:36;98716.25;;;15.56;41.97
25664;BME280;13522;50.018;20.014;2023-03-19T15:52:52;98716.48;;;15.39;42.88
25664;BME280;13522;50.018;20.014;2023-03-19T15:56:05;98721.06;;;15.22;42.64
25664;BME280;13522;50.018;20.014;2023-03-19T15:59:20;98721.94;;;15.15;43.97
25664;BME280;13522;50.018;20.014;2023-03-19T16:02:39;98726.98;;;15.02;46.02
25664;BME280;13522;50.018;20.014;2023-03-19T16:05:59;98726.70;;;14.89;46.22
25664;BME280;13522;50.018;20.014;2023-03-19T16:09:22;98722.41;;;14.71;47.79
25664;BME280;13522;50.018;20.014;2023-03-19T16:12:39;98721.75;;;14.61;46.64
25664;BME280;13522;50.018;20.014;2023-03-19T16:15:59;98731.61;;;14.53;48.16
25664;BME280;13522;50.018;20.014;2023-03-19T16:19:36;98726.63;;;14.34;46.97
25664;BME280;13522;50.018;20.014;2023-03-19T16:22:54;98740.77;;;14.26;45.88
25664;BME280;13522;50.018;20.014;2023-03-19T16:26:14;98743.11;;;14.05;46.67
25664;BME280;13522;50.018;20.014;2023-03-19T16:29:33;98752.44;;;13.93;46.42
25664;BME280;13522;50.018;20.014;2023-03-19T16:32:57;98750.27;;;13.80;49.28
25664;BME280;13522;50.018;20.014;2023-03-19T16:36:13;98752.91;;;13.72;49.60
25664;BME280;13522;50.018;20.014;2023-03-19T16:39:33;98755.73;;;13.71;49.62
25664;BME280;13522;50.018;20.014;2023-03-19T16:42:47;98758.56;;;13.69;48.04
25664;BME280;13522;50.018;20.014;2023-03-19T16:46:07;98763.23;;;13.67;47.67
25664;BME280;13522;50.018;20.014;2023-03-19T16:49:21;98760.91;;;13.64;47.61
25664;BME280;13522;50.018;20.014;2023-03-19T16:52:34;98759.72;;;13.67;45.46
25664;BME280;13522;50.018;20.014;2023-03-19T16:55:51;98752.38;;;13.69;46.86
25664;BME280;13522;50.018;20.014;2023-03-19T16:59:04;98748.70;;;13.62;45.65
25664;BME280;13522;50.018;20.014;2023-03-19T17:02:18;98760.03;;;13.56;45.42
25664;BME280;13522;50.018;20.014;2023-03-19T17:05:31;98763.84;;;13.53;46.03
25664;BME280;13522;50.018;20.014;2023-03-19T17:08:45;98765.81;;;13.43;47.63
25664;BME280;13522;50.018;20.014;2023-03-19T17:11:57;98777.50;;;13.42;45.52
25664;BME280;13522;50.018;20.014;2023-03-19T17:15:18;98778.73;;;13.22;49.44
25664;BME280;13522;50.018;20.014;2023-03-19T17:18:33;98780.64;;;13.04;49.07
25664;BME280;13522;50.018;20.014;2023-03-19T17:21:47;98782.25;;;12.97;50.01